createdAt,value
2023-06-11T00:00:52.850Z,27.10
2023-06-11T00:03:00.057Z,27.10
2023-06-11T00:05:10.053Z,27.10
2023-06-11T00:07:19.205Z,27.20
2023-06-11T00:09:27.573Z,27.30
2023-06-11T00:11:34.975Z,27.30
2023-06-11T00:13:42.398Z,27.30
2023-06-11T00:15:49.394Z,27.40
2023-06-11T00:17:56.675Z,27.40
2023-06-11T00:20:05.470Z,27.40
2023-06-11T00:22:12.752Z,27.50
2023-06-11T00:24:21.793Z,27.50
2023-06-11T00:26:30.599Z,27.60
2023-06-11T00:28:37.843Z,27.60
2023-06-11T00:30:45.170Z,27.70
2023-06-11T00:32:52.193Z,27.70
2023-06-11T00:34:59.529Z,27.70
2023-06-11T00:37:06.910Z,27.80
2023-06-11T00:39:15.137Z,27.80
2023-06-11T00:41:26.966Z,27.90
2023-06-11T00:43:34.472Z,27.90
2023-06-11T00:45:41.693Z,27.90
2023-06-11T00:47:49.156Z,28.00
2023-06-11T00:49:56.260Z,28.00
2023-06-11T00:52:03.890Z,28.00
2023-06-11T00:54:11.231Z,28.10
2023-06-11T00:56:20.196Z,28.10
2023-06-11T00:58:29.573Z,28.20
2023-06-11T01:00:37.604Z,28.20
2023-06-11T01:02:52.350Z,28.20
2023-06-11T01:05:02.903Z,28.30
2023-06-11T01:07:12.027Z,28.40
2023-06-11T01:09:23.206Z,28.40
2023-06-11T01:11:31.598Z,28.50
2023-06-11T01:13:44.836Z,28.50
2023-06-11T01:15:53.298Z,28.50
2023-06-11T01:18:04.334Z,28.60
2023-06-11T01:20:16.840Z,28.60
2023-06-11T01:22:31.693Z,28.70
2023-06-11T01:24:59.409Z,28.70
2023-06-11T01:27:14.784Z,28.80
2023-06-11T01:29:27.331Z,28.80
2023-06-11T01:31:39.794Z,28.90
2023-06-11T01:33:48.462Z,29.00
2023-06-11T01:36:00.609Z,29.00
2023-06-11T01:38:12.199Z,29.10
2023-06-11T01:40:24.035Z,29.10
2023-06-11T01:42:34.495Z,29.20
2023-06-11T01:44:43.518Z,29.20
2023-06-11T01:46:50.716Z,29.30
2023-06-11T01:48:58.957Z,29.30
2023-06-11T01:51:06.239Z,29.40
2023-06-11T01:53:15.003Z,29.40
2023-06-11T01:55:22.702Z,29.50
2023-06-11T01:57:30.145Z,29.50
2023-06-11T01:59:37.105Z,29.60
2023-06-11T02:01:46.238Z,29.60
2023-06-11T02:03:53.330Z,29.70
2023-06-11T02:06:00.710Z,29.70
2023-06-11T02:08:08.449Z,29.90
2023-06-11T02:10:16.055Z,29.90
2023-06-11T02:12:23.252Z,30.00
2023-06-11T02:14:30.527Z,30.00
2023-06-11T02:16:38.016Z,30.00
2023-06-11T02:18:47.075Z,30.10
2023-06-11T02:20:54.149Z,30.10
2023-06-11T02:23:01.338Z,30.10
2023-06-11T02:25:09.455Z,30.20
2023-06-11T02:27:17.245Z,30.20
2023-06-11T02:29:24.475Z,30.10
2023-06-11T02:31:31.531Z,30.10
2023-06-11T02:33:39.026Z,30.10
2023-06-11T02:35:48.056Z,30.20
2023-06-11T02:37:55.399Z,30.30
2023-06-11T02:40:02.431Z,30.40
2023-06-11T02:42:10.430Z,30.50
2023-06-11T02:44:17.451Z,30.50
2023-06-11T02:46:24.834Z,30.70
2023-06-11T02:48:32.074Z,30.80
2023-06-11T02:50:39.567Z,30.80
2023-06-11T02:52:48.334Z,30.90
2023-06-11T02:54:55.578Z,31.00
2023-06-11T02:57:02.599Z,31.10
2023-06-11T02:59:09.783Z,31.20
2023-06-11T03:01:16.933Z,31.20
2023-06-11T03:03:24.594Z,31.30
2023-06-11T03:05:33.272Z,31.40
2023-06-11T03:07:41.063Z,31.50
2023-06-11T03:09:50.847Z,31.60
2023-06-11T03:11:58.311Z,31.60
2023-06-11T03:14:06.065Z,31.60
2023-06-11T03:16:13.931Z,31.40
2023-06-11T03:18:21.316Z,31.30
2023-06-11T03:20:28.509Z,31.40
2023-06-11T03:22:36.096Z,31.50
2023-06-11T03:24:43.317Z,31.50
2023-06-11T03:27:03.098Z,31.60
2023-06-11T03:29:10.506Z,31.70
2023-06-11T03:31:25.734Z,31.80
2023-06-11T03:33:32.881Z,31.90
2023-06-11T03:35:40.334Z,32.00
2023-06-11T03:37:59.145Z,32.10
2023-06-11T03:40:07.083Z,32.20
2023-06-11T03:42:16.382Z,32.20
2023-06-11T03:44:23.692Z,32.10
2023-06-11T03:46:31.227Z,32.00
2023-06-11T03:48:38.619Z,31.90
2023-06-11T03:50:45.589Z,31.80
2023-06-11T03:52:52.937Z,31.70
2023-06-11T03:55:00.521Z,31.60
2023-06-11T03:57:08.991Z,31.70
2023-06-11T03:59:17.767Z,31.60
2023-06-11T04:01:25.306Z,31.70
2023-06-11T04:03:33.722Z,31.80
2023-06-11T04:05:41.290Z,31.70
2023-06-11T04:07:49.034Z,31.70
2023-06-11T04:09:56.560Z,31.70
2023-06-11T04:12:03.719Z,31.70
2023-06-11T04:14:11.140Z,31.80
2023-06-11T04:16:20.269Z,31.90
2023-06-11T04:18:27.776Z,31.90
2023-06-11T04:20:36.579Z,32.00
2023-06-11T04:22:44.167Z,32.00
2023-06-11T04:24:51.976Z,31.90
2023-06-11T04:26:59.762Z,32.00
2023-06-11T04:29:06.843Z,32.10
2023-06-11T04:31:14.236Z,32.20
2023-06-11T04:33:23.868Z,32.10
2023-06-11T04:35:31.115Z,32.10
2023-06-11T04:37:40.552Z,32.20
2023-06-11T04:39:58.650Z,32.40
2023-06-11T04:42:06.057Z,32.50
2023-06-11T04:44:13.957Z,32.60
2023-06-11T04:46:21.452Z,32.70
2023-06-11T04:48:34.310Z,32.80
2023-06-11T04:50:41.605Z,32.80
2023-06-11T04:52:51.237Z,32.90
2023-06-11T04:54:58.620Z,33.00
2023-06-11T04:57:06.744Z,33.00
2023-06-11T04:59:14.419Z,33.10
2023-06-11T05:01:22.762Z,33.10
2023-06-11T05:03:39.134Z,33.10
2023-06-11T05:05:53.344Z,33.10
2023-06-11T05:08:03.786Z,33.20
2023-06-11T05:10:12.080Z,33.30
2023-06-11T05:12:19.278Z,33.30
2023-06-11T05:14:27.616Z,33.20
2023-06-11T05:16:35.999Z,33.20
2023-06-11T05:18:45.225Z,33.30
2023-06-11T05:20:53.168Z,33.40
2023-06-11T05:23:01.325Z,33.50
2023-06-11T05:25:11.581Z,33.40
2023-06-11T05:27:20.352Z,33.20
2023-06-11T05:29:27.489Z,33.10
2023-06-11T05:31:38.234Z,33.10
2023-06-11T05:33:47.946Z,33.20
2023-06-11T05:35:55.325Z,33.00
2023-06-11T05:38:05.680Z,32.90
2023-06-11T05:40:15.156Z,32.80
2023-06-11T05:42:22.353Z,32.80
2023-06-11T05:44:29.776Z,33.00
2023-06-11T05:46:37.584Z,33.20
2023-06-11T05:48:47.721Z,33.30
2023-06-11T05:50:55.832Z,33.40
2023-06-11T05:53:04.560Z,33.50
2023-06-11T05:55:12.864Z,33.40
2023-06-11T05:57:25.270Z,33.30
2023-06-11T05:59:35.414Z,33.10
2023-06-11T06:01:47.339Z,33.00
2023-06-11T06:04:00.493Z,33.00
2023-06-11T06:06:11.085Z,33.00
2023-06-11T06:08:18.125Z,32.90
2023-06-11T06:10:25.731Z,32.80
2023-06-11T06:12:32.830Z,32.80
2023-06-11T06:14:41.013Z,32.80
2023-06-11T06:16:48.299Z,32.90
2023-06-11T06:19:01.320Z,33.00
2023-06-11T06:21:08.530Z,33.20
2023-06-11T06:23:16.214Z,33.40
2023-06-11T06:25:34.060Z,33.50
2023-06-11T06:27:41.804Z,33.40
2023-06-11T06:29:50.154Z,33.40
2023-06-11T06:31:58.054Z,33.20
2023-06-11T06:34:06.892Z,33.30
2023-06-11T06:36:15.763Z,33.20
2023-06-11T06:38:23.085Z,33.20
2023-06-11T06:40:30.427Z,33.40
2023-06-11T06:42:37.500Z,33.60
2023-06-11T06:44:45.152Z,33.70
2023-06-11T06:46:55.647Z,33.90
2023-06-11T06:49:06.053Z,33.90
2023-06-11T06:51:13.043Z,34.00
2023-06-11T06:53:24.075Z,34.20
2023-06-11T06:55:31.137Z,34.20
2023-06-11T06:57:44.476Z,34.30
2023-06-11T06:59:51.713Z,34.30
2023-06-11T07:01:59.024Z,34.20
2023-06-11T07:04:08.012Z,34.10
2023-06-11T07:06:15.743Z,34.20
2023-06-11T07:08:23.764Z,34.10
2023-06-11T07:10:32.433Z,34.10
2023-06-11T07:12:39.661Z,34.10
2023-06-11T07:14:46.978Z,34.00
2023-06-11T07:16:54.170Z,33.90
2023-06-11T07:19:01.969Z,33.70
2023-06-11T07:21:11.710Z,33.60
2023-06-11T07:23:21.711Z,33.60
2023-06-11T07:25:30.455Z,33.70
2023-06-11T07:27:38.321Z,33.80
2023-06-11T07:29:45.545Z,33.70
2023-06-11T07:31:52.884Z,33.70
2023-06-11T07:34:00.225Z,33.70
2023-06-11T07:36:10.160Z,33.80
2023-06-11T07:38:18.792Z,33.80
2023-06-11T07:40:26.264Z,33.90
2023-06-11T07:42:33.447Z,33.90
2023-06-11T07:44:40.994Z,33.80
2023-06-11T07:46:49.399Z,33.70
2023-06-11T07:48:56.490Z,33.60
2023-06-11T07:51:03.715Z,33.70
2023-06-11T07:53:15.040Z,33.70
2023-06-11T07:55:21.814Z,33.90
2023-06-11T07:57:29.347Z,33.90
2023-06-11T07:59:39.177Z,33.80
2023-06-11T08:01:46.592Z,33.80
2023-06-11T08:03:53.625Z,33.80
2023-06-11T08:06:01.164Z,33.70
2023-06-11T08:08:09.715Z,33.60
2023-06-11T08:10:19.093Z,33.50
2023-06-11T08:12:26.136Z,33.50
2023-06-11T08:14:33.368Z,33.50
2023-06-11T08:16:40.354Z,33.50
2023-06-11T08:18:47.677Z,33.60
2023-06-11T08:20:55.778Z,33.70
2023-06-11T08:23:03.075Z,33.80
2023-06-11T08:25:11.728Z,34.00
2023-06-11T08:27:20.696Z,34.00
2023-06-11T08:29:27.723Z,34.10
2023-06-11T08:31:35.400Z,34.10
2023-06-11T08:33:42.501Z,34.20
2023-06-11T08:35:49.653Z,34.20
2023-06-11T08:37:57.024Z,34.10
2023-06-11T08:40:04.367Z,34.10
2023-06-11T08:42:12.005Z,34.10
2023-06-11T08:44:24.125Z,34.00
2023-06-11T08:46:38.265Z,33.90
2023-06-11T08:48:46.896Z,33.90
2023-06-11T08:50:54.682Z,33.80
2023-06-11T08:53:02.952Z,33.70
2023-06-11T08:55:11.170Z,33.70
2023-06-11T08:57:18.252Z,33.60
2023-06-11T08:59:27.410Z,33.60
2023-06-11T09:01:35.087Z,33.50
2023-06-11T09:03:42.752Z,33.50
2023-06-11T09:05:50.754Z,33.50
2023-06-11T09:07:58.398Z,33.50
2023-06-11T09:10:10.748Z,33.50
2023-06-11T09:12:18.897Z,33.50
2023-06-11T09:14:27.571Z,33.40
2023-06-11T09:16:43.546Z,33.40
2023-06-11T09:18:51.192Z,33.30
2023-06-11T09:20:59.910Z,33.40
2023-06-11T09:23:06.956Z,33.30
2023-06-11T09:25:19.027Z,33.30
2023-06-11T09:27:26.692Z,33.30
2023-06-11T09:29:36.687Z,33.30
2023-06-11T09:31:43.753Z,33.30
2023-06-11T09:33:51.411Z,33.30
2023-06-11T09:35:58.631Z,33.40
2023-06-11T09:38:05.922Z,33.40
2023-06-11T09:40:18.436Z,33.40
2023-06-11T09:42:29.066Z,33.40
2023-06-11T09:44:38.993Z,33.40
2023-06-11T09:46:46.827Z,33.40
2023-06-11T09:48:54.122Z,33.40
2023-06-11T09:51:03.148Z,33.40
2023-06-11T09:53:13.540Z,33.40
2023-06-11T09:55:20.781Z,33.40
2023-06-11T09:57:28.472Z,33.40
2023-06-11T09:59:40.843Z,33.40
2023-06-11T10:01:50.930Z,33.40
2023-06-11T10:03:58.327Z,33.30
2023-06-11T10:06:09.230Z,33.30
2023-06-11T10:08:18.212Z,33.30
2023-06-11T10:10:27.558Z,33.20
2023-06-11T10:12:36.262Z,33.20
2023-06-11T10:14:45.033Z,33.10
2023-06-11T10:16:56.922Z,33.10
2023-06-11T10:19:12.499Z,33.10
2023-06-11T10:21:19.686Z,33.10
2023-06-11T10:23:26.763Z,33.00
2023-06-11T10:25:38.239Z,33.00
2023-06-11T10:27:47.070Z,33.00
2023-06-11T10:29:56.043Z,33.00
2023-06-11T10:32:04.101Z,33.00
2023-06-11T10:34:11.597Z,33.00
2023-06-11T10:36:28.136Z,33.00
2023-06-11T10:38:35.267Z,33.00
2023-06-11T10:40:43.459Z,33.00
2023-06-11T10:42:56.440Z,33.00
2023-06-11T10:45:09.393Z,33.00
2023-06-11T10:47:16.789Z,33.00
2023-06-11T10:49:30.003Z,33.00
2023-06-11T10:51:43.493Z,33.10
2023-06-11T10:53:59.339Z,33.00
2023-06-11T10:56:07.389Z,33.00
2023-06-11T10:58:24.373Z,33.00
2023-06-11T11:00:36.497Z,33.00
2023-06-11T11:02:42.831Z,32.90
2023-06-11T11:04:55.683Z,32.90
2023-06-11T11:07:12.207Z,32.90
2023-06-11T11:09:25.648Z,32.90
2023-06-11T11:11:32.878Z,32.80
2023-06-11T11:13:40.560Z,32.80
2023-06-11T11:15:50.823Z,32.70
2023-06-11T11:17:59.505Z,32.70
2023-06-11T11:20:10.508Z,32.70
2023-06-11T11:22:17.836Z,32.60
2023-06-11T11:24:25.806Z,32.60
2023-06-11T11:26:33.219Z,32.60
2023-06-11T11:28:40.154Z,32.60
2023-06-11T11:30:49.219Z,32.60
2023-06-11T11:32:57.389Z,32.50
2023-06-11T11:35:06.451Z,32.50
2023-06-11T11:37:13.590Z,32.50
2023-06-11T11:39:20.875Z,32.40
2023-06-11T11:41:27.945Z,32.30
2023-06-11T11:43:41.699Z,32.40
2023-06-11T11:45:52.584Z,32.30
2023-06-11T11:48:03.170Z,32.30
2023-06-11T11:50:21.257Z,32.30
2023-06-11T11:52:30.120Z,32.20
2023-06-11T11:54:37.554Z,32.20
2023-06-11T11:56:44.960Z,32.20
2023-06-11T11:58:52.795Z,32.20
2023-06-11T12:01:01.601Z,32.10
2023-06-11T12:03:13.509Z,32.20
2023-06-11T12:05:20.582Z,32.20
2023-06-11T12:07:27.861Z,32.10
2023-06-11T12:09:34.885Z,32.10
2023-06-11T12:11:56.090Z,32.10
2023-06-11T12:14:09.209Z,32.00
2023-06-11T12:16:18.516Z,32.00
2023-06-11T12:18:25.781Z,32.00
2023-06-11T12:20:33.181Z,32.00
2023-06-11T12:22:40.268Z,32.00
2023-06-11T12:24:47.541Z,32.00
2023-06-11T12:26:55.434Z,32.00
2023-06-11T12:29:02.706Z,32.00
2023-06-11T12:31:09.692Z,31.90
2023-06-11T12:33:19.258Z,31.80
2023-06-11T12:35:26.299Z,31.80
2023-06-11T12:37:33.598Z,31.70
2023-06-11T12:39:40.556Z,31.70
2023-06-11T12:41:49.122Z,31.60
2023-06-11T12:43:56.098Z,31.60
2023-06-11T12:46:03.811Z,31.60
2023-06-11T12:48:11.122Z,31.50
2023-06-11T12:50:22.963Z,31.50
2023-06-11T12:52:31.177Z,31.50
2023-06-11T12:54:38.619Z,31.40
2023-06-11T12:56:45.653Z,31.40
2023-06-11T12:58:52.933Z,31.40
2023-06-11T13:00:59.924Z,31.30
2023-06-11T13:03:08.750Z,31.30
2023-06-11T13:05:15.910Z,31.30
2023-06-11T13:07:24.825Z,31.30
2023-06-11T13:09:32.017Z,31.30
2023-06-11T13:11:39.335Z,31.30
2023-06-11T13:13:47.653Z,31.30
2023-06-11T13:15:54.739Z,31.20
2023-06-11T13:18:02.078Z,31.30
2023-06-11T13:20:10.458Z,31.20
2023-06-11T13:22:18.373Z,31.30
2023-06-11T13:24:27.143Z,31.20
2023-06-11T13:26:34.728Z,31.20
2023-06-11T13:28:43.900Z,31.20
2023-06-11T13:30:51.121Z,31.10
2023-06-11T13:32:58.304Z,31.10
2023-06-11T13:35:05.976Z,31.10
2023-06-11T13:37:12.991Z,31.10
2023-06-11T13:39:20.292Z,31.10
2023-06-11T13:41:29.112Z,31.10
2023-06-11T13:43:36.550Z,31.10
2023-06-11T13:45:45.930Z,31.00
2023-06-11T13:47:53.215Z,31.00
2023-06-11T13:50:00.243Z,31.00
2023-06-11T13:52:08.071Z,31.00
2023-06-11T13:54:15.128Z,31.00
2023-06-11T13:56:22.323Z,31.00
2023-06-11T13:58:30.979Z,30.90
2023-06-11T14:00:38.556Z,31.00
2023-06-11T14:02:45.647Z,30.90
2023-06-11T14:04:54.686Z,30.90
2023-06-11T14:07:01.970Z,30.90
2023-06-11T14:09:08.935Z,30.80
2023-06-11T14:11:16.015Z,30.80
2023-06-11T14:13:23.502Z,30.80
2023-06-11T14:15:32.320Z,30.70
2023-06-11T14:17:42.092Z,30.70
2023-06-11T14:19:48.998Z,30.70
2023-06-11T14:21:56.433Z,30.70
2023-06-11T14:24:03.575Z,30.70
2023-06-11T14:26:11.163Z,30.70
2023-06-11T14:28:18.387Z,30.60
2023-06-11T14:30:25.583Z,30.60
2023-06-11T14:32:34.677Z,30.60
2023-06-11T14:34:41.995Z,30.60
2023-06-11T14:36:49.012Z,30.50
2023-06-11T14:38:56.509Z,30.50
2023-06-11T14:41:03.485Z,30.50
2023-06-11T14:43:10.711Z,30.60
2023-06-11T14:45:17.888Z,30.60
2023-06-11T14:47:25.199Z,30.60
2023-06-11T14:49:33.913Z,30.60
2023-06-11T14:51:41.531Z,30.50
2023-06-11T14:53:48.658Z,30.50
2023-06-11T14:55:55.904Z,30.50
2023-06-11T14:58:02.833Z,30.50
2023-06-11T15:00:12.443Z,30.40
2023-06-11T15:02:19.724Z,30.40
2023-06-11T15:04:27.216Z,30.40
2023-06-11T15:06:36.305Z,30.40
2023-06-11T15:08:43.805Z,30.40
2023-06-11T15:10:50.787Z,30.40
2023-06-11T15:12:59.033Z,30.40
2023-06-11T15:15:06.208Z,30.40
2023-06-11T15:17:13.542Z,30.30
2023-06-11T15:19:20.571Z,30.40
2023-06-11T15:21:28.036Z,30.40
2023-06-11T15:23:36.790Z,30.30
2023-06-11T15:25:43.970Z,30.30
2023-06-11T15:27:52.322Z,30.30
2023-06-11T15:29:59.522Z,30.20
2023-06-11T15:32:06.770Z,30.20
2023-06-11T15:34:14.595Z,30.20
2023-06-11T15:36:22.137Z,30.20
2023-06-11T15:38:29.314Z,30.20
2023-06-11T15:40:38.082Z,30.20
2023-06-11T15:42:45.906Z,30.10
2023-06-11T15:44:52.893Z,30.10
2023-06-11T15:47:00.344Z,30.10
2023-06-11T15:49:07.328Z,30.10
2023-06-11T15:51:14.440Z,30.10
2023-06-11T15:53:21.682Z,30.00
2023-06-11T15:55:28.671Z,30.00
2023-06-11T15:57:37.783Z,30.00
2023-06-11T15:59:44.765Z,30.00
2023-06-11T16:01:52.056Z,30.00
2023-06-11T16:04:00.048Z,30.00
2023-06-11T16:06:07.541Z,30.00
2023-06-11T16:08:14.602Z,30.00
2023-06-11T16:10:21.929Z,29.90
2023-06-11T16:12:29.133Z,29.90
2023-06-11T16:14:38.506Z,29.90
2023-06-11T16:16:45.795Z,29.90
2023-06-11T16:18:53.389Z,29.80
2023-06-11T16:21:00.404Z,29.80
2023-06-11T16:23:08.986Z,29.80
2023-06-11T16:25:16.871Z,29.80
2023-06-11T16:27:24.053Z,29.80
2023-06-11T16:29:31.039Z,29.80
2023-06-11T16:31:42.611Z,29.70
2023-06-11T16:33:57.948Z,29.70
2023-06-11T16:36:06.404Z,29.70
2023-06-11T16:38:13.469Z,29.70
2023-06-11T16:40:20.815Z,29.70
2023-06-11T16:42:27.687Z,29.70
2023-06-11T16:44:34.889Z,29.60
2023-06-11T16:46:43.728Z,29.60
2023-06-11T16:48:52.841Z,29.60
2023-06-11T16:51:00.355Z,29.60
2023-06-11T16:53:07.435Z,29.60
2023-06-11T16:55:15.045Z,29.60
2023-06-11T16:57:22.730Z,29.50
2023-06-11T16:59:30.028Z,29.60
2023-06-11T17:01:37.065Z,29.50
2023-06-11T17:03:48.102Z,29.50
2023-06-11T17:05:58.559Z,29.50
2023-06-11T17:08:05.894Z,29.50
2023-06-11T17:10:14.517Z,29.50
2023-06-11T17:12:21.803Z,29.40
2023-06-11T17:14:29.125Z,29.50
2023-06-11T17:16:36.298Z,29.40
2023-06-11T17:18:45.298Z,29.40
2023-06-11T17:20:53.188Z,29.40
2023-06-11T17:23:00.687Z,29.40
2023-06-11T17:25:08.105Z,29.40
2023-06-11T17:27:15.249Z,29.40
2023-06-11T17:29:22.285Z,29.40
2023-06-11T17:31:29.668Z,29.40
2023-06-11T17:33:36.632Z,29.40
2023-06-11T17:35:45.509Z,29.40
2023-06-11T17:37:53.655Z,29.40
2023-06-11T17:40:00.965Z,29.30
2023-06-11T17:42:08.542Z,29.30
2023-06-11T17:44:16.327Z,29.30
2023-06-11T17:46:23.320Z,29.30
2023-06-11T17:48:31.027Z,29.30
2023-06-11T17:50:38.237Z,29.30
2023-06-11T17:52:47.374Z,29.30
2023-06-11T17:54:54.438Z,29.30
2023-06-11T17:57:01.953Z,29.20
2023-06-11T17:59:09.006Z,29.30
2023-06-11T18:01:16.439Z,29.20
2023-06-11T18:03:23.408Z,29.20
2023-06-11T18:05:30.810Z,29.20
2023-06-11T18:07:38.455Z,29.20
2023-06-11T18:09:47.224Z,29.20
2023-06-11T18:11:54.359Z,29.20
2023-06-11T18:14:01.585Z,29.10
2023-06-11T18:16:09.167Z,29.20
2023-06-11T18:18:17.385Z,29.10
2023-06-11T18:20:24.717Z,29.20
2023-06-11T18:22:31.809Z,29.10
2023-06-11T18:24:39.335Z,29.10
2023-06-11T18:26:48.122Z,29.10
2023-06-11T18:28:55.333Z,29.10
2023-06-11T18:31:02.407Z,29.10
2023-06-11T18:33:09.664Z,29.10
2023-06-11T18:35:16.685Z,29.10
2023-06-11T18:37:24.116Z,29.00
2023-06-11T18:39:31.032Z,29.00
2023-06-11T18:41:38.277Z,29.00
2023-06-11T18:43:47.046Z,29.00
2023-06-11T18:45:54.251Z,29.00
2023-06-11T18:48:01.386Z,29.10
2023-06-11T18:50:11.961Z,29.00
2023-06-11T18:52:19.402Z,29.00
2023-06-11T18:54:26.646Z,29.00
2023-06-11T18:56:33.713Z,29.00
2023-06-11T18:58:40.892Z,29.00
2023-06-11T19:00:49.628Z,29.00
2023-06-11T19:02:56.940Z,29.00
2023-06-11T19:05:04.159Z,29.00
2023-06-11T19:07:11.455Z,29.00
2023-06-11T19:09:18.498Z,29.00
2023-06-11T19:11:25.734Z,29.00
2023-06-11T19:13:32.808Z,29.00
2023-06-11T19:15:39.995Z,28.90
2023-06-11T19:17:50.496Z,28.90
2023-06-11T19:19:57.689Z,28.90
2023-06-11T19:22:04.706Z,28.90
2023-06-11T19:24:12.652Z,28.90
2023-06-11T19:26:19.838Z,28.90
2023-06-11T19:28:27.285Z,28.90
2023-06-11T19:30:34.274Z,28.90
2023-06-11T19:32:41.491Z,28.90
2023-06-11T19:34:50.261Z,28.90
2023-06-11T19:36:57.452Z,28.80
2023-06-11T19:39:04.415Z,28.80
2023-06-11T19:41:13.835Z,28.80
2023-06-11T19:43:22.468Z,28.80
2023-06-11T19:45:29.708Z,28.90
2023-06-11T19:47:37.342Z,28.80
2023-06-11T19:49:44.738Z,28.80
2023-06-11T19:51:53.649Z,28.80
2023-06-11T19:54:01.670Z,28.80
2023-06-11T19:56:09.209Z,28.70
2023-06-11T19:58:16.319Z,28.70
2023-06-11T20:00:23.883Z,28.70
2023-06-11T20:02:32.331Z,28.70
2023-06-11T20:04:39.525Z,28.70
2023-06-11T20:06:49.230Z,28.70
2023-06-11T20:08:58.437Z,28.70
2023-06-11T20:11:10.534Z,28.70
2023-06-11T20:13:17.652Z,28.70
2023-06-11T20:15:24.991Z,28.70
2023-06-11T20:17:32.108Z,28.60
2023-06-11T20:19:39.425Z,28.60
2023-06-11T20:21:47.525Z,28.60
2023-06-11T20:23:54.832Z,28.60
2023-06-11T20:26:03.902Z,28.60
2023-06-11T20:28:11.265Z,28.60
2023-06-11T20:30:18.544Z,28.50
2023-06-11T20:32:26.152Z,28.50
2023-06-11T20:34:33.166Z,28.60
2023-06-11T20:36:40.351Z,28.50
2023-06-11T20:38:47.379Z,28.50
2023-06-11T20:40:54.714Z,28.50
2023-06-11T20:43:03.423Z,28.50
2023-06-11T20:45:11.902Z,28.50
2023-06-11T20:47:19.066Z,28.40
2023-06-11T20:49:26.552Z,28.40
2023-06-11T20:51:34.092Z,28.40
2023-06-11T20:53:41.058Z,28.40
2023-06-11T20:55:48.340Z,28.30
2023-06-11T20:57:55.343Z,28.30
2023-06-11T21:00:04.504Z,28.30
2023-06-11T21:02:11.850Z,28.30
2023-06-11T21:04:19.267Z,28.20
2023-06-11T21:06:26.352Z,28.20
2023-06-11T21:08:33.752Z,28.20
2023-06-11T21:10:40.662Z,28.20
2023-06-11T21:12:51.691Z,28.20
2023-06-11T21:14:58.660Z,28.20
2023-06-11T21:17:07.951Z,28.20
2023-06-11T21:19:15.013Z,28.20
2023-06-11T21:21:22.257Z,28.20
2023-06-11T21:23:29.293Z,28.10
2023-06-11T21:25:36.871Z,28.20
2023-06-11T21:27:44.918Z,28.10
2023-06-11T21:29:52.208Z,28.20
2023-06-11T21:31:59.359Z,28.10
2023-06-11T21:34:08.720Z,28.10
2023-06-11T21:36:15.746Z,28.10
2023-06-11T21:38:23.143Z,28.00
2023-06-11T21:40:30.419Z,28.00
2023-06-11T21:42:37.660Z,28.10
2023-06-11T21:44:44.524Z,28.00
2023-06-11T21:46:51.948Z,28.10
2023-06-11T21:49:00.226Z,28.00
2023-06-11T21:51:09.251Z,28.00
2023-06-11T21:53:17.256Z,28.00
2023-06-11T21:55:24.646Z,28.00
2023-06-11T21:57:31.924Z,27.90
2023-06-11T21:59:39.045Z,27.90
2023-06-11T22:01:45.986Z,27.90
2023-06-11T22:03:53.302Z,27.90
2023-06-11T22:06:03.879Z,27.90
2023-06-11T22:08:12.697Z,27.90
2023-06-11T22:10:20.029Z,27.90
2023-06-11T22:12:27.225Z,27.90
2023-06-11T22:14:34.543Z,27.90
2023-06-11T22:16:46.438Z,27.90
2023-06-11T22:18:54.333Z,27.90
2023-06-11T22:21:02.035Z,27.80
2023-06-11T22:23:11.218Z,27.80
2023-06-11T22:25:18.343Z,27.80
2023-06-11T22:27:26.966Z,27.80
2023-06-11T22:29:33.828Z,27.70
2023-06-11T22:31:41.464Z,27.70
2023-06-11T22:33:48.403Z,27.70
2023-06-11T22:35:55.791Z,27.70
2023-06-11T22:38:02.764Z,27.70
2023-06-11T22:40:13.189Z,27.70
2023-06-11T22:42:20.309Z,27.70
2023-06-11T22:44:27.541Z,27.60
2023-06-11T22:46:34.739Z,27.60
2023-06-11T22:48:43.451Z,27.60
2023-06-11T22:50:51.241Z,27.60
2023-06-11T22:52:58.570Z,27.60
2023-06-11T22:55:05.535Z,27.60
2023-06-11T22:57:14.564Z,27.60
2023-06-11T22:59:21.493Z,27.60
2023-06-11T23:01:29.434Z,27.60
2023-06-11T23:03:36.514Z,27.60
2023-06-11T23:05:44.004Z,27.60
2023-06-11T23:07:51.579Z,27.60
2023-06-11T23:09:58.531Z,27.70
2023-06-11T23:12:05.805Z,27.60
2023-06-11T23:14:15.401Z,27.70
2023-06-11T23:16:22.665Z,27.70
2023-06-11T23:18:32.423Z,27.70
2023-06-11T23:20:39.611Z,27.70
2023-06-11T23:22:49.443Z,27.70
2023-06-11T23:24:56.741Z,27.80
2023-06-11T23:27:05.422Z,27.70
2023-06-11T23:29:14.675Z,27.70
2023-06-11T23:31:22.984Z,27.80
2023-06-11T23:33:32.777Z,27.80
2023-06-11T23:35:39.661Z,27.80
2023-06-11T23:37:54.114Z,27.80
2023-06-11T23:40:01.260Z,27.80
2023-06-11T23:42:09.383Z,27.80
2023-06-11T23:44:18.279Z,27.80
2023-06-11T23:46:25.710Z,27.80
2023-06-11T23:48:32.846Z,27.80
2023-06-11T23:50:43.800Z,27.80
2023-06-11T23:52:50.828Z,27.80
2023-06-11T23:54:58.834Z,27.80
2023-06-11T23:57:06.315Z,27.80
2023-06-11T23:59:13.653Z,27.80
